Fsl New York — 9VBQ8 — position and weather

sailwx.info

Track history (hours):
 
Tides and Currents Weather Stations Pressure Air Temp Water Temp Dewpoint Dewpoint Depression Visibility Wind Speed Wind Dir Waves Ship Positions

Fsl New York

Last reported at 2015-Feb-25 15:33 UTC. Time now 2015-Mar-02 15:07 UTC.
Position N 50°26' W 000°29'.

Length 138 m; draft 10.1 m.

Type: Tanker. MMSI: 565174000.

Date/timePositionNaut miles runAvg speedWind from/ knotsBaromVisibWave heightAir tempDewpointWater temp
2015-Feb-25 15:33N 50°26' W 000°29'1711.3
2015-Feb-25 14:04N 50°30' W 000°03'710.5
2015-Feb-25 13:21N 50°32' E 000°08'810.5
2015-Feb-25 12:33N 50°34' E 000°21'1111.5
2015-Feb-25 11:33N 50°38' E 000°38'1313.0
2015-Feb-25 10:33N 50°46' E 000°54'1413.8
2015-Feb-25 09:33N 50°55' E 001°11'1514.7
2015-Feb-25 08:33N 51°04' E 001°29'1413.9
2015-Feb-25 07:34N 51°13' E 001°46'1111.1
2015-Feb-25 06:33N 51°23' E 001°54'1010.1
2015-Feb-25 05:33N 51°31' E 002°04'1010.3
2015-Feb-25 04:33N 51°39' E 002°15'5811.2
2015-Feb-24 23:21N 52°03' E 003°41'910.9
2015-Feb-24 22:33N 52°02' E 003°55'1010.1
2015-Feb-24 21:33N 51°58' E 004°09'7 6.7
2015-Feb-24 20:33N 51°53' E 004°17'0 0.5
2015-Feb-24 19:30N 51°53' E 004°17'0 0.0
2015-Feb-24 18:30N 51°53' E 004°17'  
2015-Feb-20 02:34N 51°53' E 004°17'1 0.8
2015-Feb-20 01:33N 51°53' E 004°17'0 0.0
2015-Feb-20 00:33N 51°53' E 004°17'0 0.0
2015-Feb-19 23:34N 51°53' E 004°17'0 0.0
2015-Feb-19 22:34N 51°53' E 004°17'0 0.0
2015-Feb-19 21:34N 51°53' E 004°17'0 0.0
2015-Feb-19 20:33N 51°53' E 004°17'0 0.0
2015-Feb-19 19:34N 51°53' E 004°17'0 0.0
2015-Feb-19 18:33N 51°53' E 004°17'0 0.0
2015-Feb-19 17:34N 51°53' E 004°17'0 0.0
2015-Feb-19 16:33N 51°53' E 004°17'0 0.0
2015-Feb-19 15:33N 51°53' E 004°17'0 0.0
2015-Feb-19 14:33N 51°53' E 004°17'0 0.0
2015-Feb-19 13:34N 51°53' E 004°17'0 0.0
2015-Feb-19 12:33N 51°53' E 004°17'0 0.0
2015-Feb-19 11:34N 51°53' E 004°17'0 0.0
2015-Feb-19 10:33N 51°53' E 004°17'0 0.0
2015-Feb-19 09:34N 51°53' E 004°17'0 0.0
2015-Feb-19 08:33N 51°53' E 004°17'0 0.0
2015-Feb-19 07:33N 51°53' E 004°17'0 0.0
2015-Feb-19 06:34N 51°53' E 004°17'0 0.0
2015-Feb-19 05:33N 51°53' E 004°17'0 0.0
2015-Feb-19 04:34N 51°53' E 004°17'0 0.0
2015-Feb-19 03:34N 51°53' E 004°17'0 0.0
2015-Feb-19 02:34N 51°53' E 004°17'0 0.0
2015-Feb-19 01:34N 51°53' E 004°17'0 0.0
2015-Feb-19 00:34N 51°53' E 004°17'0 0.0
2015-Feb-18 23:34N 51°53' E 004°17'0 0.0
2015-Feb-18 22:34N 51°53' E 004°17'0 0.0
2015-Feb-18 21:34N 51°53' E 004°17'0 0.0
2015-Feb-18 20:33N 51°53' E 004°17'0 0.0
2015-Feb-18 19:34N 51°53' E 004°17'0 0.0
2015-Feb-18 18:34N 51°53' E 004°17'0 0.0
2015-Feb-18 17:34N 51°53' E 004°17'0 0.0
2015-Feb-18 16:33N 51°53' E 004°17'0 0.0
2015-Feb-18 15:34N 51°53' E 004°17'0 0.0
2015-Feb-18 14:34N 51°53' E 004°17'0 0.0
2015-Feb-18 13:34N 51°53' E 004°17'0 0.0
2015-Feb-18 12:34N 51°53' E 004°17'0 0.0
2015-Feb-18 11:34N 51°53' E 004°17'1 0.8
2015-Feb-18 10:34N 51°53' E 004°18'1 0.7
2015-Feb-18 09:32N 51°53' E 004°18'0 0.0
2015-Feb-17 07:34N 51°53' E 004°18'4 3.7
2015-Feb-17 06:34N 51°55' E 004°14'9 9.5
2015-Feb-17 05:34N 51°60' E 004°00'1110.7
2015-Feb-17 04:30N 52°03' E 003°43'53 8.8
2015-Feb-16 22:31N 51°39' E 002°27'1010.4
2015-Feb-16 21:33N 51°31' E 002°16'1111.1
2015-Feb-16 20:34N 51°22' E 002°07'1111.2
2015-Feb-16 19:33N 51°12' E 001°58'1211.6
2015-Feb-16 18:34N 51°06' E 001°43'1110.8
2015-Feb-16 17:34N 50°58' E 001°30'1111.2
2015-Feb-16 16:33N 50°48' E 001°23'9310.4
2015-Feb-16 07:33N 49°44' W 000°23'1212.5
2015-Feb-16 06:34N 49°33' W 000°13'1111.4
2015-Feb-16 05:34N 49°30' E 000°04'5 4.5
2015-Feb-16 04:34N 49°29' E 000°10'2 1.8
2015-Feb-16 03:34N 49°28' E 000°13'0 0.0
2015-Feb-16 02:34N 49°28' E 000°13'  
Track history (hours):
 
Tides and Currents Weather Stations Pressure Air Temp Water Temp Dewpoint Dewpoint Depression Visibility Wind Speed Wind Dir Waves Ship Positions

Fsl New York

Last reported at 2015-Feb-25 15:33 UTC. Time now 2015-Mar-02 15:07 UTC.
Position N 50°26' W 000°29'.

Length 138 m; draft 10.1 m.

Type: Tanker. MMSI: 565174000.

Date/timePositionNaut miles runAvg speedWind from/ knotsBaromVisibWave heightAir tempDewpointWater temp
2015-Feb-25 15:33N 50°26' W 000°29'1711.3
2015-Feb-25 14:04N 50°30' W 000°03'710.5
2015-Feb-25 13:21N 50°32' E 000°08'810.5
2015-Feb-25 12:33N 50°34' E 000°21'1111.5
2015-Feb-25 11:33N 50°38' E 000°38'1313.0
2015-Feb-25 10:33N 50°46' E 000°54'1413.8
2015-Feb-25 09:33N 50°55' E 001°11'1514.7
2015-Feb-25 08:33N 51°04' E 001°29'1413.9
2015-Feb-25 07:34N 51°13' E 001°46'1111.1
2015-Feb-25 06:33N 51°23' E 001°54'1010.1
2015-Feb-25 05:33N 51°31' E 002°04'1010.3
2015-Feb-25 04:33N 51°39' E 002°15'5811.2
2015-Feb-24 23:21N 52°03' E 003°41'910.9
2015-Feb-24 22:33N 52°02' E 003°55'1010.1
2015-Feb-24 21:33N 51°58' E 004°09'7 6.7
2015-Feb-24 20:33N 51°53' E 004°17'0 0.5
2015-Feb-24 19:30N 51°53' E 004°17'0 0.0
2015-Feb-24 18:30N 51°53' E 004°17'  
2015-Feb-20 02:34N 51°53' E 004°17'1 0.8
2015-Feb-20 01:33N 51°53' E 004°17'0 0.0
2015-Feb-20 00:33N 51°53' E 004°17'0 0.0
2015-Feb-19 23:34N 51°53' E 004°17'0 0.0
2015-Feb-19 22:34N 51°53' E 004°17'0 0.0
2015-Feb-19 21:34N 51°53' E 004°17'0 0.0
2015-Feb-19 20:33N 51°53' E 004°17'0 0.0
2015-Feb-19 19:34N 51°53' E 004°17'0 0.0
2015-Feb-19 18:33N 51°53' E 004°17'0 0.0
2015-Feb-19 17:34N 51°53' E 004°17'0 0.0
2015-Feb-19 16:33N 51°53' E 004°17'0 0.0
2015-Feb-19 15:33N 51°53' E 004°17'0 0.0
2015-Feb-19 14:33N 51°53' E 004°17'0 0.0
2015-Feb-19 13:34N 51°53' E 004°17'0 0.0
2015-Feb-19 12:33N 51°53' E 004°17'0 0.0
2015-Feb-19 11:34N 51°53' E 004°17'0 0.0
2015-Feb-19 10:33N 51°53' E 004°17'0 0.0
2015-Feb-19 09:34N 51°53' E 004°17'0 0.0
2015-Feb-19 08:33N 51°53' E 004°17'0 0.0
2015-Feb-19 07:33N 51°53' E 004°17'0 0.0
2015-Feb-19 06:34N 51°53' E 004°17'0 0.0
2015-Feb-19 05:33N 51°53' E 004°17'0 0.0
2015-Feb-19 04:34N 51°53' E 004°17'0 0.0
2015-Feb-19 03:34N 51°53' E 004°17'0 0.0
2015-Feb-19 02:34N 51°53' E 004°17'0 0.0
2015-Feb-19 01:34N 51°53' E 004°17'0 0.0
2015-Feb-19 00:34N 51°53' E 004°17'0 0.0
2015-Feb-18 23:34N 51°53' E 004°17'0 0.0
2015-Feb-18 22:34N 51°53' E 004°17'0 0.0
2015-Feb-18 21:34N 51°53' E 004°17'0 0.0
2015-Feb-18 20:33N 51°53' E 004°17'0 0.0
2015-Feb-18 19:34N 51°53' E 004°17'0 0.0
2015-Feb-18 18:34N 51°53' E 004°17'0 0.0
2015-Feb-18 17:34N 51°53' E 004°17'0 0.0
2015-Feb-18 16:33N 51°53' E 004°17'0 0.0
2015-Feb-18 15:34N 51°53' E 004°17'0 0.0
2015-Feb-18 14:34N 51°53' E 004°17'0 0.0
2015-Feb-18 13:34N 51°53' E 004°17'0 0.0
2015-Feb-18 12:34N 51°53' E 004°17'0 0.0
2015-Feb-18 11:34N 51°53' E 004°17'1 0.8
2015-Feb-18 10:34N 51°53' E 004°18'1 0.7
2015-Feb-18 09:32N 51°53' E 004°18'0 0.0
2015-Feb-17 07:34N 51°53' E 004°18'4 3.7
2015-Feb-17 06:34N 51°55' E 004°14'9 9.5
2015-Feb-17 05:34N 51°60' E 004°00'1110.7
2015-Feb-17 04:30N 52°03' E 003°43'53 8.8
2015-Feb-16 22:31N 51°39' E 002°27'1010.4
2015-Feb-16 21:33N 51°31' E 002°16'1111.1
2015-Feb-16 20:34N 51°22' E 002°07'1111.2
2015-Feb-16 19:33N 51°12' E 001°58'1211.6
2015-Feb-16 18:34N 51°06' E 001°43'1110.8
2015-Feb-16 17:34N 50°58' E 001°30'1111.2
2015-Feb-16 16:33N 50°48' E 001°23'9310.4
2015-Feb-16 07:33N 49°44' W 000°23'1212.5
2015-Feb-16 06:34N 49°33' W 000°13'1111.4
2015-Feb-16 05:34N 49°30' E 000°04'5 4.5
2015-Feb-16 04:34N 49°29' E 000°10'2 1.8
2015-Feb-16 03:34N 49°28' E 000°13'0 0.0
2015-Feb-16 02:34N 49°28' E 000°13'  

Dump ship's entire track history